Ana Sayfa
METAR-TAF:

METAR-TAF

Havaalanları :

Hobbs, New Mexico, Amerika Birleşik Devletleri

Enlem: 32-41N, Boylam: 103-13W, yükseklik: 1115 m

Güncel hava durumu gözlemi

Rapor saat 15:50 UTC de 16 dakika önce yapıldı.
Rüzgar kuzeydoğudan 7 kt
Sıcaklık 9°C
Nem 29%
Basınç 1028 hPa
Görüş mesafesi: 16.1 km
Açık gökyüzü

METAR: KHOB 281550Z 04007KT 10SM SKC 09/M08 A3037

Saat: 09:06 (16:06 UTC)

Tahmin

Rapor saat 11:23 UTC de 4 saat ve 43 dakika önce yapıldı.
Ayın 28'si saat 12 UTC'den ayın 29'si saat 12 UTC'ye kadar geçerli Tahmin
Rüzgar kuzey/kuzeydoğudan 7 kt
Görüş mesafesi: 10 km
25000 ft yükseklikte parçalı bulutlu
Ayın 28'si saat 1900 UTC'den
Rüzgar değişken yönden 5 kt
Görüş mesafesi: 10 km
25000 ft yükseklikte parçalı çok bulutlu

TAF: KHOB 281123Z 2812/2912 02007KT P6SM SCT250 FM281900 VRB05KT P6SM BKN250

4.000'den fazla havaalanı için hava durumu gözlemleri ve tahminleri (METAR ve TAF raporları).

Kullanılabilir istasyonlar harita üzerinde sarı ve kırmızı noktalarla gösterilir.

İstasyonun adını görmek için fareyi noktanın üzerinde gezdirin.

Sonrasında hava gözlem ve tahminlerini görmek için tıklayın.

Haritayı değiştirmek için: yaklaştırmak için siyah artı işaretli yeşil düğmeye ve uzaklaştırmak için de eksi işaretli düğmeye hızla tıklayın; bitişik haritalar için yeşil okları kullanın.


METAR-TAF: